Steilacoom, Washington
Current Conditions -  °F | °C
As of 10:16 AM on Thursday 27 Nov 2014 (Local Time) from KTCM Reporting Station
Light Rain Light Rain  
Wind Chill: 55°   Ceiling: 4800
Heat Index: 55°   Visibility: 10mi
Dew Point: 54°   Wind: 13mph
Humidity: 94%   Direction: 170°S
Pressure: 29.87"   Gusts: NA
Location:  47.17°N, 122.59°W
Report Text: KTCM 271816Z AUTO 17011KT 10SM -RA SCT035 BKN048 OVC060 13/12 A2987 RMK AO2 $
Loading
Personal Weather Stations






























Interactive Weather Map New forecast layout! Learn more

10-Day Weather Forecast

Advertisements
Track Severe Weather on mobile